Time;durP1;ratioP1;P1;durP2;ratioP2;P2;SDS_P1;SDS_P2;PMS_P1;PMS_P2;Temp;Humidity;BMP_temperature;BMP_pressure;BME280_temperature;BME280_humidity;BME280_pressure;Samples;Min_cycle;Max_cycle;Signal;HPM_P1;HPM_P2
2023/12/13 00:02:06;;;;;;;16.60;8.75;;;;;;;4.93;nan;99828.16;5058245;28;20053;-69
2023/12/13 00:04:32;;;;;;;15.70;8.90;;;;;;;4.96;nan;99828.59;5057554;28;20131;-68
2023/12/13 00:06:57;;;;;;;19.33;9.05;;;;;;;4.99;nan;99819.53;5058736;28;20021;-67
2023/12/13 00:09:23;;;;;;;17.95;9.38;;;;;;;4.94;nan;99807.09;5036955;28;20120;-69
2023/12/13 00:11:48;;;;;;;17.55;9.38;;;;;;;4.95;nan;99815.72;5047395;28;20050;-69
2023/12/13 00:14:14;;;;;;;22.23;9.23;;;;;;;4.96;nan;99819.97;5058422;28;20095;-68
2023/12/13 00:16:39;;;;;;;17.45;9.07;;;;;;;4.96;nan;99806.91;5062184;28;20386;-69
2023/12/13 00:19:06;;;;;;;17.73;9.32;;;;;;;5.03;nan;99810.31;5063924;28;20124;-69
2023/12/13 00:21:35;;;;;;;21.00;10.00;;;;;;;5.01;nan;99794.06;5059659;28;20036;-68
2023/12/13 00:24:01;;;;;;;17.63;8.82;;;;;;;5.07;nan;99808.88;5059196;28;20036;-69
2023/12/13 00:26:27;;;;;;;18.10;9.75;;;;;;;5.15;nan;99824.34;5062083;28;20024;-67
2023/12/13 00:28:52;;;;;;;20.88;10.20;;;;;;;5.03;nan;99794.66;5051992;28;20386;-68
2023/12/13 00:31:18;;;;;;;20.23;9.68;;;;;;;5.10;nan;99806.69;5063538;28;20106;-69
2023/12/13 00:33:44;;;;;;;18.00;8.48;;;;;;;4.98;nan;99774.41;5061895;28;20427;-69
2023/12/13 00:36:09;;;;;;;16.52;9.05;;;;;;;5.07;nan;99778.38;5061386;28;20035;-68
2023/12/13 00:38:35;;;;;;;19.45;9.07;;;;;;;5.08;nan;99774.78;5063450;28;20493;-70
2023/12/13 00:41:00;;;;;;;17.73;9.27;;;;;;;5.12;nan;99769.94;5063297;28;20024;-68
2023/12/13 00:43:26;;;;;;;19.58;9.20;;;;;;;5.17;nan;99769.31;5061722;28;20103;-69
2023/12/13 00:45:51;;;;;;;17.20;9.27;;;;;;;5.10;nan;99756.31;5057932;28;20083;-69
2023/12/13 00:48:17;;;;;;;18.10;8.90;;;;;;;5.13;nan;99750.66;5060961;28;20036;-70
2023/12/13 00:50:43;;;;;;;17.60;9.25;;;;;;;4.74;nan;99709.81;5044583;28;20150;-68
2023/12/13 00:53:09;;;;;;;17.60;9.30;;;;;;;5.24;nan;99775.31;5062695;28;20048;-70
2023/12/13 00:55:38;;;;;;;19.23;8.98;;;;;;;;;;5061767;28;20107;-70
2023/12/13 00:58:03;;;;;;;19.60;9.43;;;;;;;;;;5061192;28;20595;-71
2023/12/13 01:00:29;;;;;;;17.20;8.97;;;;;;;;;;5065009;28;20025;-71
2023/12/13 01:02:55;;;;;;;19.23;8.23;;;;;;;;;;5080572;28;20644;-69
2023/12/13 01:05:20;;;;;;;20.85;8.60;;;;;;;;;;5077298;28;20054;-70
2023/12/13 01:07:45;;;;;;;13.98;7.63;;;;;;;;;;5072634;28;20368;-66
2023/12/13 01:10:11;;;;;;;15.90;7.65;;;;;;;;;;5062051;28;20035;-68
2023/12/13 01:12:36;;;;;;;15.15;7.50;;;;;;;;;;5079205;28;20032;-69
2023/12/13 01:15:09;;;;;;;14.98;7.75;;;;;;;;;;5066873;28;20099;-67
2023/12/13 01:17:43;;;;;;;16.25;7.65;;;;;;;;;;5056793;28;20115;-68
2023/12/13 01:20:09;;;;;;;19.40;8.93;;;;;;;;;;5060738;28;20040;-65
2023/12/13 01:22:37;;;;;;;16.48;8.52;;;;;;;;;;5061648;28;20398;-65
2023/12/13 01:25:03;;;;;;;18.25;8.43;;;;;;;;;;5060548;28;20053;-68
2023/12/13 01:27:28;;;;;;;23.60;8.23;;;;;;;;;;5059573;28;20057;-68
2023/12/13 01:29:53;;;;;;;16.23;8.07;;;;;;;;;;5042056;28;20032;-63
2023/12/13 01:32:19;;;;;;;18.60;8.73;;;;;;;;;;5057963;28;20111;-69
2023/12/13 01:34:45;;;;;;;17.52;8.65;;;;;;;;;;5059776;28;20028;-63
2023/12/13 01:37:11;;;;;;;17.30;8.13;;;;;;;;;;5042379;28;20120;-64
2023/12/13 01:39:41;;;;;;;19.52;9.25;;;;;;;;;;5051732;28;20029;-66
2023/12/13 01:42:08;;;;;;;19.77;10.15;;;;;;;;;;5049752;28;20065;-66
2023/12/13 01:44:34;;;;;;;21.98;9.43;;;;;;;;;;5059907;28;20036;-67
2023/12/13 01:47:10;;;;;;;20.20;9.30;;;;;;;;;;5060783;28;20034;-67
2023/12/13 01:49:36;;;;;;;20.80;9.15;;;;;;;;;;5041235;28;20047;-66
2023/12/13 01:52:04;;;;;;;17.60;10.05;;;;;;;;;;5039383;28;20532;-66
2023/12/13 01:54:39;;;;;;;19.02;10.00;;;;;;;;;;5018767;28;20064;-65
2023/12/13 01:57:06;;;;;;;15.95;9.05;;;;;;;;;;5025378;28;20057;-64
2023/12/13 01:59:33;;;;;;;19.52;10.10;;;;;;;;;;5018295;28;20169;-64
2023/12/13 02:02:10;;;;;;;18.52;9.48;;;;;;;;;;5026468;28;20064;-65
2023/12/13 02:04:36;;;;;;;21.50;9.32;;;;;;;;;;5018854;28;20033;-68
2023/12/13 02:07:05;;;;;;;19.00;9.73;;;;;;;;;;5018975;28;20021;-68
2023/12/13 02:09:31;;;;;;;22.52;10.77;;;;;;;;;;5019720;28;20033;-67
2023/12/13 02:11:58;;;;;;;21.92;10.55;;;;;;;;;;5022437;28;20029;-68
2023/12/13 02:14:27;;;;;;;20.85;9.13;;;;;;;;;;5018679;28;20376;-67
2023/12/13 02:16:56;;;;;;;17.58;9.10;;;;;;;;;;5021724;28;20494;-67
2023/12/13 02:19:23;;;;;;;16.88;9.38;;;;;;;;;;5020641;28;20049;-67
2023/12/13 02:21:48;;;;;;;17.17;8.70;;;;;;;;;;5026821;28;20037;-68
2023/12/13 02:24:15;;;;;;;14.80;8.05;;;;;;;;;;5021351;28;20506;-68
2023/12/13 02:26:42;;;;;;;18.38;8.63;;;;;;;;;;5019361;28;20022;-68
2023/12/13 02:29:09;;;;;;;14.75;7.63;;;;;;;;;;5020758;28;20492;-68
2023/12/13 02:31:46;;;;;;;14.10;7.45;;;;;;;;;;5026593;28;20143;-67
2023/12/13 02:34:16;;;;;;;13.65;6.95;;;;;;;;;;5021077;28;20041;-68
2023/12/13 02:36:46;;;;;;;12.70;7.53;;;;;;;;;;5020661;28;20115;-67
2023/12/13 02:39:15;;;;;;;;;;;;;;;;;;5018632;28;20072;-68
2023/12/13 02:41:41;;;;;;;13.45;6.28;;;;;;;;;;5016632;28;20030;-68
2023/12/13 02:44:08;;;;;;;13.75;7.40;;;;;;;;;;5024525;28;20125;-68
2023/12/13 02:46:37;;;;;;;12.35;6.63;;;;;;;;;;5024790;28;20033;-68
2023/12/13 02:49:04;;;;;;;14.90;8.20;;;;;;;;;;5025658;28;20434;-69
2023/12/13 02:51:43;;;;;;;17.40;7.35;;;;;;;;;;5027392;28;20213;-68
2023/12/13 02:54:08;;;;;;;16.07;7.80;;;;;;;;;;5056654;28;20045;-70
2023/12/13 02:56:34;;;;;;;12.02;7.43;;;;;;;;;;5048733;28;20024;-68
2023/12/13 02:58:59;;;;;;;11.90;5.77;;;;;;;;;;5048399;28;20057;-70
2023/12/13 03:01:24;;;;;;;15.23;5.63;;;;;;;;;;5063089;28;20357;-72
2023/12/13 03:03:50;;;;;;;12.52;5.47;;;;;;;5.75;nan;99547.28;5059493;28;20284;-68
2023/12/13 03:06:15;;;;;;;9.77;5.15;;;;;;;5.82;nan;99515.84;5060161;28;20035;-68
2023/12/13 03:08:41;;;;;;;10.02;5.22;;;;;;;5.86;nan;99524.84;5060307;28;20360;-67
2023/12/13 03:11:09;;;;;;;10.98;5.80;;;;;;;5.69;nan;99486.22;5042606;28;20152;-68
2023/12/13 03:13:34;;;;;;;11.20;5.13;;;;;;;5.92;nan;99514.34;5056848;28;20386;-68
2023/12/13 03:16:00;;;;;;;9.82;5.15;;;;;;;5.91;nan;99497.09;5056588;28;20032;-68
2023/12/13 03:18:25;;;;;;;11.32;5.75;;;;;;;5.88;nan;99501.94;5060429;28;20093;-67
2023/12/13 03:20:51;;;;;;;8.43;5.07;;;;;;;5.95;nan;99500.09;5056257;28;20037;-68
2023/12/13 03:23:16;;;;;;;9.10;4.72;;;;;;;6.03;nan;99506.84;5056080;28;20511;-67
2023/12/13 03:25:42;;;;;;;9.95;5.03;;;;;;;6.03;nan;99496.38;5040777;28;20028;-68
2023/12/13 03:28:08;;;;;;;9.90;5.40;;;;;;;6.03;nan;99504.22;5060420;28;20040;-68
2023/12/13 03:30:34;;;;;;;10.18;5.05;;;;;;;6.12;nan;99514.16;5056417;28;20100;-68
2023/12/13 03:32:59;;;;;;;10.68;4.82;;;;;;;6.08;nan;99512.22;5040575;28;20459;-69
2023/12/13 03:35:24;;;;;;;9.73;4.88;;;;;;;6.10;nan;99510.97;5054571;28;20082;-67
2023/12/13 03:37:50;;;;;;;8.65;5.20;;;;;;;6.04;nan;99487.53;5057839;28;20032;-69
2023/12/13 03:40:15;;;;;;;9.18;5.03;;;;;;;6.12;nan;99498.50;5045052;28;20637;-67
2023/12/13 03:42:41;;;;;;;8.85;5.15;;;;;;;6.23;nan;99517.09;5065424;28;20032;-67
2023/12/13 03:45:07;;;;;;;15.50;5.25;;;;;;;6.24;nan;99522.09;5041409;28;20045;-68
2023/12/13 03:47:32;;;;;;;8.88;5.50;;;;;;;6.23;nan;99514.50;5058022;28;20123;-67
2023/12/13 03:49:58;;;;;;;9.65;5.07;;;;;;;6.26;nan;99514.84;5037315;28;20439;-67
2023/12/13 03:52:26;;;;;;;10.40;5.65;;;;;;;6.29;nan;99518.81;5057123;28;20594;-67
2023/12/13 03:54:51;;;;;;;11.52;5.28;;;;;;;6.23;nan;99506.66;5056288;28;20056;-66
2023/12/13 03:57:17;;;;;;;15.27;5.07;;;;;;;6.33;nan;99520.00;5053089;28;20028;-66
2023/12/13 03:59:42;;;;;;;8.52;5.28;;;;;;;6.28;nan;99517.25;5063307;28;20561;-67
2023/12/13 04:02:07;;;;;;;25.95;12.43;;;;;;;6.33;nan;99522.63;5058850;28;20028;-67
2023/12/13 04:04:33;;;;;;;47.45;21.38;;;;;;;6.33;nan;99525.22;5039811;28;20386;-66
2023/12/13 04:06:59;;;;;;;31.42;15.02;;;;;;;6.29;nan;99516.22;5057939;28;20024;-67
2023/12/13 04:09:25;;;;;;;28.73;14.23;;;;;;;6.24;nan;99519.47;5057433;28;20029;-67
2023/12/13 04:11:50;;;;;;;14.13;9.15;;;;;;;6.17;nan;99503.06;5056281;28;20105;-68
2023/12/13 04:14:16;;;;;;;18.92;9.15;;;;;;;6.26;nan;99514.03;5057592;28;20501;-69
2023/12/13 04:16:44;;;;;;;16.08;8.98;;;;;;;6.24;nan;99510.84;5043843;28;20024;-67
2023/12/13 04:19:13;;;;;;;15.57;9.67;;;;;;;6.28;nan;99520.66;5042930;28;20033;-68
2023/12/13 04:21:39;;;;;;;21.08;10.15;;;;;;;6.20;nan;99502.63;5039084;28;20274;-67
2023/12/13 04:24:05;;;;;;;17.38;8.55;;;;;;;6.02;nan;99472.06;5055975;28;20094;-67
2023/12/13 04:26:30;;;;;;;14.80;8.82;;;;;;;6.20;nan;99500.00;5055897;28;20032;-66
2023/12/13 04:28:56;;;;;;;22.70;10.85;;;;;;;6.26;nan;99516.66;5042717;28;20036;-68
2023/12/13 04:31:21;;;;;;;32.88;13.93;;;;;;;6.27;nan;99513.00;5055758;28;20028;-67
2023/12/13 04:33:47;;;;;;;42.17;17.00;;;;;;;6.26;nan;99514.03;5042429;28;20057;-68
2023/12/13 04:36:13;;;;;;;44.83;17.20;;;;;;;6.26;nan;99517.44;5061676;28;20083;-69
2023/12/13 04:38:38;;;;;;;40.47;15.93;;;;;;;6.18;nan;99502.84;5049274;28;20394;-68
2023/12/13 04:41:04;;;;;;;28.85;11.95;;;;;;;6.24;nan;99503.00;5060246;28;20036;-68
2023/12/13 04:43:29;;;;;;;14.48;7.70;;;;;;;6.26;nan;99487.91;5057724;28;20029;-68
2023/12/13 04:45:55;;;;;;;16.23;7.28;;;;;;;6.32;nan;99493.06;5058790;28;20016;-68
2023/12/13 04:48:20;;;;;;;12.68;7.00;;;;;;;6.42;nan;99504.78;5059501;28;20423;-68
2023/12/13 04:50:46;;;;;;;14.25;7.10;;;;;;;6.12;nan;99442.81;5054361;28;20040;-71
2023/12/13 04:53:15;;;;;;;14.32;6.97;;;;;;;6.47;nan;99484.03;5056900;28;20139;-67
2023/12/13 04:55:42;;;;;;;10.95;6.50;;;;;;;6.60;nan;99491.69;5056076;28;20052;-66
2023/12/13 04:58:08;;;;;;;12.60;7.18;;;;;;;6.64;nan;99498.09;5057234;28;20589;-66
2023/12/13 05:00:34;;;;;;;15.10;8.30;;;;;;;6.60;nan;99489.88;5056784;28;20471;-66
2023/12/13 05:02:59;;;;;;;14.65;8.15;;;;;;;6.67;nan;99492.41;5062564;28;20036;-67
2023/12/13 05:05:24;;;;;;;20.13;10.18;;;;;;;6.52;nan;99460.63;5059779;28;20035;-67
2023/12/13 05:07:50;;;;;;;26.98;12.13;;;;;;;6.60;nan;99476.81;5061811;28;20120;-66
2023/12/13 05:10:15;;;;;;;26.15;13.57;;;;;;;6.65;nan;99491.84;5048243;28;20662;-66
2023/12/13 05:12:41;;;;;;;26.30;12.48;;;;;;;6.63;nan;99487.84;5061034;28;20035;-68
2023/12/13 05:15:07;;;;;;;18.85;10.48;;;;;;;6.63;nan;99491.25;5061770;28;20039;-68
2023/12/13 05:17:32;;;;;;;25.30;12.18;;;;;;;6.62;nan;99491.50;5061548;28;20025;-67
2023/12/13 05:19:58;;;;;;;29.25;14.77;;;;;;;6.57;nan;99490.31;5044395;28;20054;-66
2023/12/13 05:22:24;;;;;;;27.77;13.27;;;;;;;6.52;nan;99474.50;5062613;28;20435;-67
2023/12/13 05:24:49;;;;;;;22.38;11.90;;;;;;;6.50;nan;99486.22;5043104;28;20043;-67
2023/12/13 05:27:21;;;;;;;29.52;13.93;;;;;;;6.52;nan;99503.28;5066041;28;20033;-67
2023/12/13 05:29:46;;;;;;;25.65;13.77;;;;;;;6.37;nan;99484.56;5061129;28;20016;-68
2023/12/13 05:32:15;;;;;;;31.98;14.30;;;;;;;6.34;nan;99477.94;5044224;28;20028;-69
2023/12/13 05:34:41;;;;;;;34.00;14.50;;;;;;;6.32;nan;99472.16;5061017;28;20158;-70
2023/12/13 05:37:06;;;;;;;33.85;14.40;;;;;;;6.43;nan;99488.91;5065257;28;20304;-70
2023/12/13 05:39:32;;;;;;;26.52;13.20;;;;;;;6.46;nan;99477.97;5061667;28;20111;-68
2023/12/13 05:41:58;;;;;;;17.63;8.93;;;;;;;6.47;nan;99478.81;5062188;28;20037;-68
2023/12/13 05:44:23;;;;;;;16.75;8.07;;;;;;;6.47;nan;99466.53;5063645;28;20035;-71
2023/12/13 05:46:49;;;;;;;16.35;7.25;;;;;;;6.38;nan;99431.22;5063598;28;20032;-70
2023/12/13 05:49:15;;;;;;;12.55;6.45;;;;;;;6.68;nan;99457.41;5063197;28;20387;-66
2023/12/13 05:51:41;;;;;;;8.38;4.63;;;;;;;6.80;nan;99470.53;5062459;28;20089;-68
2023/12/13 05:54:07;;;;;;;9.60;4.55;;;;;;;6.67;nan;99440.09;5062199;28;20036;-71
2023/12/13 05:56:32;;;;;;;8.68;4.80;;;;;;;6.95;nan;99463.03;5063043;28;20090;-73
2023/12/13 05:58:58;;;;;;;11.52;4.72;;;;;;;6.93;nan;99432.88;5063606;28;20029;-68
2023/12/13 06:01:23;;;;;;;10.07;4.35;;;;;;;7.05;nan;99433.72;5060640;28;20050;-71
2023/12/13 06:03:49;;;;;;;8.68;4.03;;;;;;;7.12;nan;99438.84;5058637;28;20052;-69
2023/12/13 06:06:14;;;;;;;7.70;4.05;;;;;;;7.20;nan;99441.91;5061103;28;20079;-68
2023/12/13 06:08:41;;;;;;;11.57;4.05;;;;;;;7.22;nan;99452.97;5061545;28;20024;-68
2023/12/13 06:11:07;;;;;;;6.63;3.70;;;;;;;7.30;nan;99456.28;5064256;28;20024;-69
2023/12/13 06:13:54;;;;;;;9.20;4.13;;;;;;;7.27;nan;99439.19;5063295;28;20509;-70
2023/12/13 06:16:19;;;;;;;8.40;3.85;;;;;;;7.30;nan;99435.31;5063650;28;20044;-73
2023/12/13 06:18:44;;;;;;;8.90;4.10;;;;;;;7.38;nan;99441.03;5059983;28;20107;-74
2023/12/13 06:21:10;;;;;;;8.10;3.90;;;;;;;7.46;nan;99445.91;5058630;28;20025;-73
2023/12/13 06:23:35;;;;;;;6.90;3.85;;;;;;;7.50;nan;99441.03;5059872;28;20025;-75
2023/12/13 06:26:00;;;;;;;6.88;4.00;;;;;;;7.45;nan;99427.81;5063053;28;20021;-74
2023/12/13 06:28:26;;;;;;;8.88;4.10;;;;;;;7.56;nan;99411.28;5052238;28;20039;-72
2023/12/13 06:30:52;;;;;;;8.18;4.22;;;;;;;7.55;nan;99377.47;5052318;28;20070;-76
2023/12/13 06:33:18;;;;;;;8.77;4.13;;;;;;;7.61;nan;99381.78;5061564;28;20023;-75
2023/12/13 06:35:44;;;;;;;7.65;3.85;;;;;;;7.58;nan;99377.81;5060826;28;20032;-73
2023/12/13 06:38:10;;;;;;;6.93;3.70;;;;;;;7.66;nan;99392.38;5061871;28;20601;-72
2023/12/13 06:40:35;;;;;;;8.25;4.55;;;;;;;7.70;nan;99387.47;5062053;28;20029;-73
2023/12/13 06:43:00;;;;;;;9.70;4.03;;;;;;;7.49;nan;99350.38;5057208;28;20036;-73
2023/12/13 06:45:26;;;;;;;7.47;4.10;;;;;;;7.66;nan;99377.47;5043919;28;20467;-75
2023/12/13 06:47:51;;;;;;;7.35;4.30;;;;;;;7.72;nan;99380.19;5058478;28;20053;-73
2023/12/13 06:50:17;;;;;;;8.13;4.45;;;;;;;7.79;nan;99389.50;5056907;28;20544;-73
2023/12/13 06:52:43;;;;;;;7.97;4.65;;;;;;;7.72;nan;99367.88;5057577;28;20044;-74
2023/12/13 06:55:09;;;;;;;10.40;5.43;;;;;;;7.63;nan;99346.47;5041407;28;20025;-74
2023/12/13 06:57:35;;;;;;;9.68;5.40;;;;;;;7.64;nan;99344.66;5044875;28;20384;-74
2023/12/13 07:00:01;;;;;;;10.15;5.47;;;;;;;7.76;nan;99350.66;5076675;28;20005;-74
2023/12/13 07:02:27;;;;;;;8.02;4.45;;;;;;;7.77;nan;99336.53;5076594;28;20476;-73
2023/12/13 07:04:52;;;;;;;8.20;4.43;;;;;;;7.79;nan;99344.97;5079465;28;20021;-76
2023/12/13 07:07:18;;;;;;;7.40;4.53;;;;;;;7.83;nan;99343.47;5061796;28;20151;-73
2023/12/13 07:09:44;;;;;;;9.63;4.10;;;;;;;7.84;nan;99341.63;5057732;28;20107;-73
2023/12/13 07:12:10;;;;;;;8.93;4.60;;;;;;;7.82;nan;99327.97;5059836;28;20082;-72
2023/12/13 07:14:35;;;;;;;6.80;4.43;;;;;;;7.83;nan;99330.38;5041831;28;20079;-73
2023/12/13 07:17:01;;;;;;;9.13;4.00;;;;;;;7.76;nan;99307.94;5057082;28;20016;-72
2023/12/13 07:19:27;;;;;;;7.22;4.00;;;;;;;7.79;nan;99307.47;5041234;28;20043;-72
2023/12/13 07:21:52;;;;;;;6.78;3.63;;;;;;;7.79;nan;99305.66;5058613;28;20107;-73
2023/12/13 07:24:18;;;;;;;9.07;3.83;;;;;;;7.87;nan;99322.81;5049514;28;20501;-74
2023/12/13 07:26:43;;;;;;;7.15;4.20;;;;;;;7.89;nan;99329.41;5048282;28;20025;-73
2023/12/13 07:29:09;;;;;;;8.02;4.32;;;;;;;7.93;nan;99328.97;5058777;28;20029;-73
2023/12/13 07:31:40;;;;;;;8.80;4.03;;;;;;;7.92;nan;99324.75;5058613;28;20020;-70
2023/12/13 07:34:07;;;;;;;8.13;3.85;;;;;;;7.76;nan;99302.72;5055793;28;20106;-70
2023/12/13 07:36:33;;;;;;;7.93;4.30;;;;;;;7.99;nan;99328.03;5058728;28;20028;-70
2023/12/13 07:38:58;;;;;;;10.70;4.25;;;;;;;8.02;nan;99335.41;5058149;28;20482;-70
2023/12/13 07:41:25;;;;;;;7.47;3.92;;;;;;;7.93;nan;99319.28;5042671;28;20034;-70
2023/12/13 07:43:50;;;;;;;6.55;4.13;;;;;;;7.99;nan;99317.53;5041621;28;20021;-72
2023/12/13 07:46:16;;;;;;;6.70;3.92;;;;;;;8.08;nan;99322.16;5059140;28;20395;-70
2023/12/13 07:48:41;;;;;;;9.43;3.60;;;;;;;8.09;nan;99338.69;5041293;28;20029;-70
2023/12/13 07:51:07;;;;;;;6.78;3.80;;;;;;;8.00;nan;99319.16;5048581;28;20020;-71
2023/12/13 07:53:32;;;;;;;7.53;4.38;;;;;;;8.07;nan;99309.31;5056464;28;20045;-71
2023/12/13 07:55:58;;;;;;;7.13;3.88;;;;;;;8.05;nan;99306.91;5046740;28;20025;-71
2023/12/13 07:58:23;;;;;;;8.43;4.50;;;;;;;8.13;nan;99313.59;5057023;28;20470;-70
2023/12/13 08:00:49;;;;;;;7.35;3.75;;;;;;;7.98;nan;99280.03;5059153;28;20074;-72
2023/12/13 08:03:14;;;;;;;7.20;3.60;;;;;;;8.10;nan;99296.50;5055658;28;20041;-72
2023/12/13 08:05:40;;;;;;;7.32;3.30;;;;;;;8.21;nan;99304.56;5056472;28;20032;-72
2023/12/13 08:08:05;;;;;;;7.90;3.33;;;;;;;8.23;nan;99289.38;5058394;28;20470;-71
2023/12/13 08:10:31;;;;;;;10.52;4.03;;;;;;;8.28;nan;99295.53;5059098;28;20047;-71
2023/12/13 08:12:56;;;;;;;5.35;3.00;;;;;;;8.10;nan;99265.06;5061367;28;20029;-72
2023/12/13 08:15:21;;;;;;;5.30;3.30;;;;;;;8.42;nan;99313.59;5055684;28;20496;-71
2023/12/13 08:17:47;;;;;;;7.65;3.55;;;;;;;8.40;nan;99313.81;5057031;28;20108;-70
2023/12/13 08:20:12;;;;;;;5.55;3.30;;;;;;;8.43;nan;99328.31;5057795;28;20033;-74
2023/12/13 08:22:38;;;;;;;5.75;2.83;;;;;;;8.51;nan;99328.72;5058703;28;20744;-74
2023/12/13 08:25:03;;;;;;;6.85;3.00;;;;;;;8.56;nan;99316.72;5059784;28;20478;-73
2023/12/13 08:27:29;;;;;;;5.45;3.20;;;;;;;8.65;nan;99329.19;5046532;28;20063;-70
2023/12/13 08:29:54;;;;;;;5.50;3.05;;;;;;;8.67;nan;99327.13;5056722;28;20413;-71
2023/12/13 08:32:20;;;;;;;9.68;3.92;;;;;;;8.63;nan;99304.22;5057467;28;20075;-71
2023/12/13 08:34:45;;;;;;;5.20;3.15;;;;;;;8.64;nan;99309.25;5057247;28;20025;-70
2023/12/13 08:37:11;;;;;;;6.47;3.58;;;;;;;8.73;nan;99314.88;5051307;28;20028;-71
2023/12/13 08:39:37;;;;;;;6.35;3.58;;;;;;;8.81;nan;99318.94;5061765;28;20032;-70
2023/12/13 08:42:03;;;;;;;4.88;3.47;;;;;;;8.72;nan;99300.97;5063351;28;20025;-70
2023/12/13 08:44:29;;;;;;;7.05;3.60;;;;;;;8.81;nan;99305.81;5063303;28;20079;-70
2023/12/13 08:46:55;;;;;;;7.25;3.50;;;;;;;8.77;nan;99283.72;5063082;28;20032;-70
2023/12/13 08:49:20;;;;;;;6.60;3.60;;;;;;;8.87;nan;99302.22;5060636;28;20487;-70
2023/12/13 08:51:48;;;;;;;6.75;3.55;;;;;;;8.89;nan;99285.19;5061027;28;20055;-70
2023/12/13 08:54:15;;;;;;;6.13;3.47;;;;;;;8.87;nan;99266.25;5058716;28;20029;-69
2023/12/13 08:56:41;;;;;;;7.15;3.60;;;;;;;8.96;nan;99282.41;5060683;28;20521;-71
2023/12/13 08:59:06;;;;;;;6.55;3.28;;;;;;;8.96;nan;99279.78;5060825;28;20153;-71
2023/12/13 09:01:32;;;;;;;9.63;4.25;;;;;;;8.96;nan;99261.41;5062311;28;20562;-70
2023/12/13 09:03:57;;;;;;;7.00;3.50;;;;;;;9.00;nan;99264.34;5061828;28;20021;-71
2023/12/13 09:06:22;;;;;;;6.78;3.72;;;;;;;9.03;nan;99259.41;5062553;28;20376;-70
2023/12/13 09:08:48;;;;;;;7.18;4.70;;;;;;;9.07;nan;99244.72;5062736;28;20478;-73
2023/12/13 09:11:13;;;;;;;8.00;3.50;;;;;;;9.10;nan;99233.75;5061300;28;20775;-72
2023/12/13 09:13:39;;;;;;;7.38;4.07;;;;;;;9.18;nan;99243.03;5058668;28;20021;-72
2023/12/13 09:16:04;;;;;;;6.50;3.30;;;;;;;9.13;nan;99220.13;5062705;28;20036;-72
2023/12/13 09:18:30;;;;;;;9.20;3.65;;;;;;;9.21;nan;99212.88;5049768;28;20035;-72
2023/12/13 09:20:56;;;;;;;6.05;3.78;;;;;;;9.26;nan;99216.34;5059749;28;20028;-72
2023/12/13 09:23:25;;;;;;;7.70;3.75;;;;;;;9.13;nan;99193.88;5062299;28;20947;-72
2023/12/13 09:25:52;;;;;;;7.55;3.83;;;;;;;9.35;nan;99211.47;5064566;28;20383;-72
2023/12/13 09:28:18;;;;;;;6.60;3.80;;;;;;;9.29;nan;99186.16;5049375;28;20056;-72
2023/12/13 09:30:44;;;;;;;7.20;3.33;;;;;;;9.38;nan;99187.31;5059256;28;20024;-72
2023/12/13 09:33:11;;;;;;;6.05;3.40;;;;;;;9.27;nan;99165.41;5058156;28;20023;-72
2023/12/13 09:35:37;;;;;;;7.03;3.55;;;;;;;9.44;nan;99175.81;5059148;28;20082;-73
2023/12/13 09:38:04;;;;;;;6.57;3.50;;;;;;;9.61;nan;99181.00;5046181;28;20059;-71
2023/12/13 09:40:30;;;;;;;6.97;3.17;;;;;;;9.66;nan;99186.28;5059655;28;20382;-72
2023/12/13 09:42:56;;;;;;;6.70;3.20;;;;;;;9.65;nan;99171.56;5059429;28;20024;-73
2023/12/13 09:45:22;;;;;;;6.57;3.50;;;;;;;9.74;nan;99175.31;5059383;28;20426;-73
2023/12/13 09:47:49;;;;;;;6.03;3.15;;;;;;;9.79;nan;99169.31;5047640;28;20074;-74
2023/12/13 09:50:15;;;;;;;5.00;3.15;;;;;;;9.76;nan;99146.94;5050700;28;20036;-74
2023/12/13 09:52:42;;;;;;;5.40;3.35;;;;;;;9.80;nan;99152.50;5062304;28;20089;-73
2023/12/13 09:55:08;;;;;;;8.35;3.65;;;;;;;9.81;nan;99154.09;5073304;28;20048;-74
2023/12/13 09:57:33;;;;;;;6.82;3.40;;;;;;;9.86;nan;99134.94;5079072;28;20032;-74
2023/12/13 09:59:59;;;;;;;7.22;3.22;;;;;;;9.87;nan;99120.75;5078295;28;20049;-75
2023/12/13 10:02:26;;;;;;;4.78;3.20;;;;;;;9.97;nan;99128.72;5066041;28;20082;-72
2023/12/13 10:04:52;;;;;;;6.18;3.30;;;;;;;9.92;nan;99112.91;5081051;28;20051;-73
2023/12/13 10:07:18;;;;;;;8.65;3.60;;;;;;;9.89;nan;99102.88;5074767;28;20165;-72
2023/12/13 10:09:45;;;;;;;6.55;2.80;;;;;;;10.06;nan;99121.16;5058456;28;20470;-73
2023/12/13 10:12:12;;;;;;;6.57;3.08;;;;;;;10.06;nan;99118.53;5060264;28;20064;-75
2023/12/13 10:14:38;;;;;;;7.57;3.80;;;;;;;9.96;nan;99101.63;5065759;28;20039;-74
2023/12/13 10:17:04;;;;;;;5.53;3.25;;;;;;;10.06;nan;99102.75;5050676;28;20051;-75
2023/12/13 10:19:32;;;;;;;8.93;3.30;;;;;;;9.97;nan;99089.28;5063430;28;20039;-75
2023/12/13 10:21:58;;;;;;;5.07;3.22;;;;;;;10.02;nan;99097.97;5046284;28;20032;-74
2023/12/13 10:24:25;;;;;;;5.35;3.35;;;;;;;10.00;nan;99088.75;5043455;28;20102;-75
2023/12/13 10:26:51;;;;;;;6.45;3.38;;;;;;;10.06;nan;99094.84;5063346;28;20039;-75
2023/12/13 10:29:19;;;;;;;8.55;3.35;;;;;;;10.05;nan;99070.38;5044005;28;20063;-75
2023/12/13 10:31:45;;;;;;;7.00;4.00;;;;;;;10.04;nan;99083.78;5047509;28;20017;-74
2023/12/13 10:34:15;;;;;;;6.85;3.90;;;;;;;10.10;nan;99085.41;5062991;28;20035;-74
2023/12/13 10:36:41;;;;;;;7.82;4.38;;;;;;;10.13;nan;99087.53;5049358;28;20035;-75
2023/12/13 10:39:07;;;;;;;8.52;4.20;;;;;;;10.08;nan;99074.34;5050130;28;20036;-74
2023/12/13 10:41:36;;;;;;;9.00;4.07;;;;;;;10.08;nan;99082.22;5044662;28;20032;-74
2023/12/13 10:44:02;;;;;;;7.78;3.92;;;;;;;10.09;nan;99081.19;5062548;28;20040;-73
2023/12/13 10:46:34;;;;;;;6.68;4.00;;;;;;;10.10;nan;99072.25;5060075;28;20036;-74
2023/12/13 10:49:08;;;;;;;5.53;3.22;;;;;;;10.11;nan;99071.22;5058372;28;20025;-76
2023/12/13 10:51:36;;;;;;;9.07;3.85;;;;;;;10.18;nan;99069.16;5059501;28;20135;-77
2023/12/13 10:54:02;;;;;;;7.63;3.70;;;;;;;10.22;nan;99073.66;5048915;28;20032;-76
2023/12/13 10:56:28;;;;;;;7.95;3.58;;;;;;;10.19;nan;99062.84;5044690;28;20047;-76
2023/12/13 10:58:54;;;;;;;5.55;3.42;;;;;;;10.23;nan;99069.19;5059541;28;20040;-74
2023/12/13 11:01:20;;;;;;;8.00;3.90;;;;;;;10.29;nan;99077.91;5048404;28;20083;-76
2023/12/13 11:03:49;;;;;;;10.00;3.97;;;;;;;10.30;nan;99069.78;5049875;28;20031;-74
2023/12/13 11:06:16;;;;;;;6.50;4.03;;;;;;;10.23;nan;99058.66;5060314;28;20741;-74
2023/12/13 11:08:46;;;;;;;7.95;4.07;;;;;;;10.28;nan;99063.97;5043373;28;20039;-75
2023/12/13 11:11:13;;;;;;;;;;;;;;;10.31;nan;99071.34;5047927;28;20075;-75
2023/12/13 11:13:53;;;;;;;9.32;4.07;;;;;;;10.32;nan;99067.69;5058086;28;19912;-75
2023/12/13 11:16:23;;;;;;;8.80;4.28;;;;;;;10.34;nan;99062.16;5058177;28;20033;-74
2023/12/13 11:18:53;;;;;;;6.70;3.28;;;;;;;10.29;nan;99049.75;5061066;28;20567;-75
2023/12/13 11:21:27;;;;;;;7.53;3.78;;;;;;;10.36;nan;99057.41;5043252;28;20036;-75
2023/12/13 11:23:54;;;;;;;5.95;3.50;;;;;;;10.37;nan;99045.88;5060282;28;20497;-75
2023/12/13 11:26:24;;;;;;;6.72;3.40;;;;;;;10.39;nan;99054.28;5058354;28;20505;-75
2023/12/13 11:28:50;;;;;;;6.28;3.58;;;;;;;10.29;nan;99038.44;5050248;28;20116;-74
2023/12/13 11:31:24;;;;;;;6.40;3.10;;;;;;;10.34;nan;99028.75;5062447;28;20024;-76
2023/12/13 11:33:57;;;;;;;6.82;3.70;;;;;;;10.36;nan;99015.31;5042297;28;20039;-75
2023/12/13 11:36:25;;;;;;;6.88;3.58;;;;;;;10.42;nan;99022.19;5044338;28;20024;-74
2023/12/13 11:38:52;;;;;;;5.22;3.40;;;;;;;10.43;nan;99026.41;5062429;28;20025;-73
2023/12/13 11:41:18;;;;;;;6.38;3.85;;;;;;;10.43;nan;99021.91;5059420;28;20043;-74
2023/12/13 11:43:44;;;;;;;8.23;3.88;;;;;;;10.43;nan;99036.94;5059532;28;20028;-76
2023/12/13 11:46:11;;;;;;;6.80;4.18;;;;;;;10.31;nan;99002.16;5042512;28;20056;-75
2023/12/13 11:48:37;;;;;;;7.07;3.60;;;;;;;10.26;nan;98991.56;5056412;28;20063;-75
2023/12/13 11:51:02;;;;;;;8.23;3.85;;;;;;;10.34;nan;98999.81;5057044;28;20048;-74
2023/12/13 11:53:32;;;;;;;7.07;3.90;;;;;;;10.24;nan;98978.66;5037711;28;20403;-76
2023/12/13 11:55:57;;;;;;;;;;;;;;;10.27;nan;98982.63;5039023;28;20387;-76
2023/12/13 11:58:27;;;;;;;7.03;4.10;;;;;;;10.16;nan;98958.13;5046309;28;20343;-76
2023/12/13 12:00:53;;;;;;;6.57;3.97;;;;;;;10.16;nan;98968.66;5037906;28;20033;-76
2023/12/13 12:03:18;;;;;;;7.22;4.10;;;;;;;10.15;nan;98969.69;5040410;28;20064;-75
2023/12/13 12:05:44;;;;;;;7.45;4.28;;;;;;;10.25;nan;98975.00;5049993;28;20126;-77
2023/12/13 12:08:11;;;;;;;10.85;3.80;;;;;;;10.23;nan;98963.94;5040448;28;20395;-76
2023/12/13 12:10:37;;;;;;;7.43;3.78;;;;;;;10.30;nan;98971.63;5044685;28;20021;-76
2023/12/13 12:13:03;;;;;;;6.65;4.05;;;;;;;10.32;nan;98965.06;5046173;28;20051;-75